Time;durP1;ratioP1;P1;durP2;ratioP2;P2;SDS_P1;SDS_P2;PMS_P1;PMS_P2;Temp;Humidity;BMP_temperature;BMP_pressure;BME280_temperature;BME280_humidity;BME280_pressure;Samples;Min_cycle;Max_cycle;Signal;HPM_P1;HPM_P2
2022/08/02 00:00:11;;;;;;;4.05;3.47;;;;;;;20.05;72.18;98655.00;4485135;31;20525;-70
2022/08/02 00:02:39;;;;;;;3.33;2.90;;;;;;;20.05;72.12;98652.34;4485191;31;20112;-70
2022/08/02 00:05:07;;;;;;;3.53;2.83;;;;;;;19.95;72.48;98655.38;4485079;31;20130;-70
2022/08/02 00:07:34;;;;;;;5.15;3.17;;;;;;;19.90;72.76;98648.00;4484162;31;20096;-70
2022/08/02 00:10:10;;;;;;;3.93;2.90;;;;;;;19.88;72.76;98652.72;4485114;31;20158;-70
2022/08/02 00:12:38;;;;;;;5.12;3.00;;;;;;;19.87;72.80;98650.25;4485157;31;20172;-70
2022/08/02 00:15:06;;;;;;;3.78;3.00;;;;;;;19.88;72.41;98650.06;4485050;31;20104;-70
2022/08/02 00:17:34;;;;;;;5.22;2.90;;;;;;;19.86;72.65;98646.75;4485182;31;20148;-70
2022/08/02 00:20:01;;;;;;;4.45;3.10;;;;;;;19.88;72.23;98641.25;4485110;31;20115;-70
2022/08/02 00:22:29;;;;;;;5.28;2.80;;;;;;;19.85;72.36;98648.59;4485053;31;20111;-70
2022/08/02 00:24:56;;;;;;;5.55;2.80;;;;;;;19.85;72.37;98642.47;4485139;31;20454;-70
2022/08/02 00:27:23;;;;;;;4.68;3.00;;;;;;;19.78;72.68;98646.94;4484805;32;20119;-70
2022/08/02 00:29:51;;;;;;;4.15;3.10;;;;;;;19.78;72.75;98646.94;4484790;31;20118;-70
2022/08/02 00:32:21;;;;;;;4.30;3.00;;;;;;;19.75;72.92;98647.31;4485004;31;20160;-70
2022/08/02 00:34:49;;;;;;;4.35;2.78;;;;;;;19.73;73.08;98647.53;4484798;31;20717;-70
2022/08/02 00:37:16;;;;;;;3.65;2.80;;;;;;;19.66;73.37;98647.47;4484907;31;20161;-70
2022/08/02 00:39:44;;;;;;;3.90;3.22;;;;;;;19.65;73.45;98651.19;4484509;32;20518;-70
2022/08/02 00:42:14;;;;;;;3.60;2.67;;;;;;;19.69;73.57;98655.06;4484813;31;20096;-70
2022/08/02 00:44:41;;;;;;;3.47;2.92;;;;;;;19.73;73.60;98646.69;4484819;31;20449;-70
2022/08/02 00:47:09;;;;;;;3.50;3.05;;;;;;;19.73;73.56;98655.50;4485008;32;20088;-70
2022/08/02 00:49:36;;;;;;;4.82;3.00;;;;;;;19.72;73.74;98658.34;4484831;31;20167;-70
2022/08/02 00:52:04;;;;;;;4.43;3.28;;;;;;;19.74;73.80;98659.75;4484901;31;20420;-70
2022/08/02 00:54:31;;;;;;;4.03;3.40;;;;;;;19.75;73.93;98658.75;4484625;31;20172;-70
2022/08/02 00:56:58;;;;;;;3.55;2.95;;;;;;;19.76;73.96;98655.09;4484764;31;20092;-70
2022/08/02 00:59:25;;;;;;;5.75;3.50;;;;;;;19.63;74.50;98655.84;4484556;31;20084;-70
2022/08/02 01:01:54;;;;;;;3.35;3.05;;;;;;;19.56;74.85;98652.37;4484740;31;20147;-70
2022/08/02 01:04:25;;;;;;;4.20;3.22;;;;;;;19.51;75.15;98654.78;4484827;31;20085;-70
2022/08/02 01:06:59;;;;;;;4.37;3.30;;;;;;;19.38;75.80;98650.25;4484528;31;20100;-70
2022/08/02 01:09:26;;;;;;;3.47;2.92;;;;;;;19.38;76.03;98662.69;4484875;31;20155;-70
2022/08/02 01:11:53;;;;;;;4.15;3.75;;;;;;;19.32;76.28;98656.34;4484415;31;20097;-70
2022/08/02 01:14:23;;;;;;;3.55;2.92;;;;;;;19.29;76.49;98654.88;4484577;32;20471;-70
2022/08/02 01:17:06;;;;;;;4.22;3.22;;;;;;;19.34;76.51;98659.59;4483143;32;20257;-70
2022/08/02 01:19:43;;;;;;;4.37;2.92;;;;;;;19.24;77.01;98654.66;4483215;32;20080;-70
2022/08/02 01:22:26;;;;;;;5.03;3.40;;;;;;;19.20;77.21;98653.41;4484404;31;20577;-70
2022/08/02 01:25:34;;;;;;;6.37;3.50;;;;;;;19.19;77.07;98657.06;4484330;31;20092;-70
2022/08/02 01:28:35;;;;;;;3.87;3.15;;;;;;;19.18;77.16;98658.06;4484068;31;20499;-70
2022/08/02 01:31:24;;;;;;;3.92;3.20;;;;;;;19.17;77.32;98656.47;4483052;32;20557;-70
2022/08/02 01:34:12;;;;;;;6.37;3.12;;;;;;;19.15;77.56;98663.78;4484393;31;20088;-70
2022/08/02 01:36:43;;;;;;;4.00;3.47;;;;;;;19.20;77.54;98661.38;4483949;32;20435;-70
2022/08/02 01:39:13;;;;;;;5.43;3.17;;;;;;;19.20;77.41;98665.84;4482872;32;20089;-70
2022/08/02 01:41:59;;;;;;;4.70;3.30;;;;;;;19.26;77.44;98659.78;4483984;32;20093;-70
2022/08/02 01:44:29;;;;;;;4.22;3.45;;;;;;;19.21;77.71;98667.50;4484158;31;20155;-70
2022/08/02 01:47:00;;;;;;;4.57;3.22;;;;;;;19.21;77.95;98672.81;4482795;32;20131;-70
2022/08/02 01:49:30;;;;;;;6.93;3.20;;;;;;;19.17;78.21;98671.56;4482986;32;20149;-70
2022/08/02 01:54:48;;;;;;;4.75;3.35;;;;;;;19.12;78.83;98685.41;4482984;32;20085;-70
2022/08/02 01:57:16;;;;;;;4.28;3.20;;;;;;;19.04;79.41;98682.94;4483725;32;20080;-70
2022/08/02 01:59:44;;;;;;;4.95;3.72;;;;;;;19.06;79.41;98681.72;4482733;32;20100;-70
2022/08/02 02:02:13;;;;;;;4.53;3.65;;;;;;;19.08;79.54;98681.53;4483688;32;20092;-70
2022/08/02 02:04:42;;;;;;;3.97;3.25;;;;;;;19.03;79.94;98687.41;4482723;32;20104;-70
2022/08/02 02:07:12;;;;;;;6.12;3.70;;;;;;;19.07;79.99;98687.84;4466768;32;20126;-70
2022/08/02 02:09:39;;;;;;;5.00;4.03;;;;;;;19.04;80.27;98688.22;4467101;32;20096;-70
2022/08/02 02:12:18;;;;;;;4.35;3.80;;;;;;;19.00;80.49;98687.81;4466915;32;20111;-70
2022/08/02 02:14:46;;;;;;;4.72;4.18;;;;;;;18.97;80.80;98688.19;4467876;32;20384;-70
2022/08/02 02:17:20;;;;;;;5.85;4.20;;;;;;;18.96;80.87;98682.06;4468090;32;20092;-70
2022/08/02 02:20:13;;;;;;;5.87;3.80;;;;;;;18.92;81.25;98688.75;4468216;32;20096;-70
2022/08/02 02:22:41;;;;;;;3.95;3.55;;;;;;;18.89;81.28;98691.78;4467062;32;20084;-70
2022/08/02 02:25:09;;;;;;;6.60;4.10;;;;;;;18.88;81.37;98690.16;4466733;32;20105;-70
2022/08/02 02:27:42;;;;;;;5.07;4.25;;;;;;;18.91;81.34;98686.28;4467560;32;20622;-70
2022/08/02 02:30:11;;;;;;;6.18;4.30;;;;;;;18.85;81.53;98681.72;4466824;32;20500;-70
2022/08/02 02:32:39;;;;;;;4.32;3.92;;;;;;;18.85;81.45;98679.94;4468799;32;20077;-70
2022/08/02 02:35:08;;;;;;;8.10;3.87;;;;;;;18.80;81.62;98682.31;4468977;32;20090;-70
2022/08/02 02:37:36;;;;;;;4.97;4.12;;;;;;;18.75;81.77;98682.06;4481432;32;20104;-70
2022/08/02 02:40:04;;;;;;;4.90;4.00;;;;;;;18.65;82.21;98681.56;4484494;32;20119;-69
2022/08/02 02:42:32;;;;;;;8.45;3.65;;;;;;;18.63;82.35;98679.91;4484544;32;20110;-70
2022/08/02 02:45:01;;;;;;;4.80;3.72;;;;;;;18.65;82.50;98692.19;4484750;32;20105;-70
2022/08/02 02:47:29;;;;;;;4.32;3.60;;;;;;;18.61;82.52;98689.91;4484577;32;20390;-70
2022/08/02 02:50:09;;;;;;;4.10;3.70;;;;;;;18.65;82.50;98686.88;4484911;32;20100;-70
2022/08/02 02:52:38;;;;;;;4.93;4.07;;;;;;;18.63;82.69;98689.72;4485906;31;20103;-70
2022/08/02 02:55:08;;;;;;;8.95;4.28;;;;;;;18.60;82.97;98687.44;4485868;31;20100;-70
2022/08/02 02:57:36;;;;;;;6.30;4.90;;;;;;;18.63;82.92;98685.22;4484296;32;20092;-70
2022/08/02 03:00:06;;;;;;;4.30;3.90;;;;;;;18.61;83.10;98684.59;4484534;32;20164;-70
2022/08/02 03:02:33;;;;;;;6.18;3.67;;;;;;;18.59;83.21;98686.62;4485636;31;20119;-70
2022/08/02 03:05:02;;;;;;;7.68;4.62;;;;;;;18.50;83.64;98685.13;4484545;32;20462;-70
2022/08/02 03:07:32;;;;;;;7.37;4.22;;;;;;;18.50;83.97;98679.00;4484262;32;20883;-70
2022/08/02 03:09:59;;;;;;;4.80;4.30;;;;;;;18.55;83.84;98673.94;4484453;32;20083;-70
2022/08/02 03:12:27;;;;;;;4.37;3.97;;;;;;;18.57;83.70;98671.91;4485700;32;20446;-70
2022/08/02 03:15:00;;;;;;;5.80;4.62;;;;;;;18.56;83.79;98664.97;4485534;31;20077;-70
2022/08/02 03:17:46;;;;;;;5.53;4.37;;;;;;;18.58;83.78;98663.75;4485625;31;20093;-70
2022/08/02 03:20:15;;;;;;;5.00;4.07;;;;;;;18.65;83.55;98663.81;4485548;31;20092;-70
2022/08/02 03:22:43;;;;;;;4.82;3.97;;;;;;;18.69;83.43;98675.69;4485430;31;20109;-70
2022/08/02 03:25:11;;;;;;;5.07;4.32;;;;;;;18.62;83.77;98666.84;4485586;31;20443;-70
2022/08/02 03:27:39;;;;;;;4.40;4.00;;;;;;;18.65;83.52;98673.63;4485161;31;20157;-70
2022/08/02 03:30:10;;;;;;;5.03;4.53;;;;;;;18.58;83.90;98674.37;4484362;32;20084;-70
2022/08/02 03:32:39;;;;;;;6.00;4.15;;;;;;;18.56;83.88;98684.38;4485799;31;20430;-70
2022/08/02 03:35:09;;;;;;;4.30;3.58;;;;;;;18.54;83.87;98677.59;4484107;32;20109;-70
2022/08/02 03:37:36;;;;;;;6.30;4.22;;;;;;;18.61;83.46;98678.50;4485319;31;20441;-70
2022/08/02 03:40:06;;;;;;;5.55;3.83;;;;;;;18.59;83.42;98676.03;4483977;32;20092;-70
2022/08/02 03:42:33;;;;;;;5.75;4.62;;;;;;;18.63;83.13;98679.09;4483879;32;20076;-70
2022/08/02 03:45:03;;;;;;;7.10;4.07;;;;;;;18.69;82.82;98686.31;4485271;32;20154;-70
2022/08/02 03:47:35;;;;;;;;;;;;;;;18.66;82.83;98681.38;4484530;32;20092;-70
2022/08/02 03:50:03;;;;;;;4.10;3.70;;;;;;;18.70;82.69;98692.41;4485526;31;19980;-70
2022/08/02 03:52:31;;;;;;;5.32;4.07;;;;;;;18.70;82.74;98692.41;4484308;32;20655;-70
2022/08/02 03:54:59;;;;;;;4.70;4.20;;;;;;;18.72;82.66;98695.72;4484592;32;20100;-70
2022/08/02 03:57:26;;;;;;;4.50;4.07;;;;;;;18.77;82.32;98693.31;4485128;31;20088;-70
2022/08/02 03:59:53;;;;;;;5.07;4.20;;;;;;;18.84;81.98;98704.00;4485281;31;20114;-70
2022/08/02 04:02:20;;;;;;;6.95;3.95;;;;;;;18.91;81.55;98696.91;4485049;31;20119;-70
2022/08/02 04:04:48;;;;;;;4.65;3.87;;;;;;;18.96;81.07;98697.97;4485235;32;20092;-70
2022/08/02 04:07:15;;;;;;;4.70;4.20;;;;;;;18.96;81.18;98692.66;4485298;32;20088;-70
2022/08/02 04:10:03;;;;;;;4.43;3.78;;;;;;;19.06;80.59;98707.44;4485304;32;20139;-70
2022/08/02 04:12:30;;;;;;;4.93;4.03;;;;;;;19.17;79.91;98711.38;4485084;31;20084;-70
2022/08/02 04:14:58;;;;;;;4.37;3.90;;;;;;;19.25;79.33;98706.75;4485117;31;20577;-70
2022/08/02 04:17:26;;;;;;;6.12;3.92;;;;;;;19.29;79.17;98708.00;4485076;31;20161;-70
2022/08/02 04:19:57;;;;;;;6.22;4.00;;;;;;;19.41;78.90;98720.72;4485112;31;20148;-70
2022/08/02 04:22:28;;;;;;;5.80;4.05;;;;;;;19.48;78.86;98718.94;4484232;32;20168;-70
2022/08/02 04:25:00;;;;;;;4.20;3.75;;;;;;;19.43;78.95;98719.53;4485087;31;20077;-70
2022/08/02 04:27:29;;;;;;;4.65;3.33;;;;;;;19.47;78.30;98726.09;4483570;32;20100;-70
2022/08/02 04:30:17;;;;;;;3.72;3.37;;;;;;;19.55;78.08;98725.12;4484010;32;20446;-70
2022/08/02 04:32:45;;;;;;;5.45;4.35;;;;;;;19.60;77.93;98725.34;4485083;31;20088;-70
2022/08/02 04:35:12;;;;;;;6.47;4.00;;;;;;;19.63;78.08;98724.94;4484827;31;20147;-70
2022/08/02 04:37:48;;;;;;;4.05;3.65;;;;;;;19.65;78.09;98728.25;4483923;32;20105;-70
2022/08/02 04:40:36;;;;;;;6.57;3.45;;;;;;;19.67;78.12;98736.03;4484887;32;20093;-70
2022/08/02 04:43:03;;;;;;;3.90;3.50;;;;;;;19.76;77.82;98734.03;4484958;31;20110;-70
2022/08/02 04:45:31;;;;;;;5.07;3.58;;;;;;;19.90;76.87;98733.09;4484838;31;20172;-70
2022/08/02 04:47:59;;;;;;;4.05;3.62;;;;;;;20.03;76.38;98724.34;4484933;31;20088;-70
2022/08/02 04:50:33;;;;;;;4.37;3.83;;;;;;;20.09;76.01;98728.87;4484816;31;20104;-70
2022/08/02 04:53:01;;;;;;;4.53;3.28;;;;;;;20.21;75.49;98724.59;4484129;31;20091;-70
2022/08/02 04:55:28;;;;;;;6.65;4.35;;;;;;;20.33;74.63;98739.97;4484770;31;20119;-70
2022/08/02 04:57:57;;;;;;;4.30;3.47;;;;;;;20.43;73.88;98735.09;4484565;31;20096;-70
2022/08/02 05:00:26;;;;;;;3.72;3.42;;;;;;;20.51;73.36;98740.19;4485013;31;20442;-70
2022/08/02 05:02:57;;;;;;;4.70;3.60;;;;;;;20.70;72.85;98743.97;4484255;31;20084;-70
2022/08/02 05:05:25;;;;;;;4.82;3.30;;;;;;;20.89;72.40;98749.50;4484529;31;20154;-71
2022/08/02 05:07:52;;;;;;;5.30;3.42;;;;;;;21.04;71.74;98752.75;4483826;31;20233;-70
2022/08/02 05:10:20;;;;;;;4.07;3.67;;;;;;;21.16;70.00;98752.16;4483911;31;20216;-70
2022/08/02 05:12:48;;;;;;;4.47;3.35;;;;;;;21.28;69.87;98755.84;4483436;32;20152;-70
2022/08/02 05:15:17;;;;;;;3.53;3.22;;;;;;;21.38;69.86;98758.09;4482460;32;20092;-70
2022/08/02 05:17:45;;;;;;;4.47;3.47;;;;;;;21.51;68.67;98754.59;4483025;32;20096;-70
2022/08/02 05:20:16;;;;;;;6.47;4.72;;;;;;;21.67;67.84;98764.81;4484099;31;20095;-70
2022/08/02 05:22:43;;;;;;;6.68;4.03;;;;;;;21.98;67.02;98769.44;4484430;31;20149;-70
2022/08/02 05:25:10;;;;;;;3.97;3.37;;;;;;;22.06;66.83;98776.38;4484314;32;20088;-70
2022/08/02 05:27:38;;;;;;;5.30;3.50;;;;;;;22.11;66.79;98773.09;4483308;31;20100;-70
2022/08/02 05:30:06;;;;;;;10.02;3.83;;;;;;;22.38;67.48;98773.81;4483680;31;20145;-70
2022/08/02 05:32:33;;;;;;;4.80;3.55;;;;;;;22.54;65.88;98777.00;4483645;31;20144;-70
2022/08/02 05:35:01;;;;;;;5.60;3.17;;;;;;;22.74;64.26;98785.72;4482803;31;20484;-70
2022/08/02 05:37:28;;;;;;;11.70;4.22;;;;;;;22.77;64.40;98781.75;4473028;32;20097;-70
2022/08/02 05:39:58;;;;;;;4.05;3.03;;;;;;;22.95;63.67;98789.03;4482809;32;20100;-70
2022/08/02 05:42:31;;;;;;;4.18;3.30;;;;;;;23.17;62.79;98793.00;4476071;31;20085;-70
2022/08/02 05:44:59;;;;;;;4.07;2.90;;;;;;;23.33;62.11;98786.31;4481259;32;20115;-70
2022/08/02 05:47:26;;;;;;;4.53;3.10;;;;;;;23.33;61.25;98785.47;4482999;31;20216;-70
2022/08/02 05:49:53;;;;;;;6.50;3.30;;;;;;;23.26;61.30;98800.75;4483338;31;20161;-70
2022/08/02 05:52:25;;;;;;;5.03;3.90;;;;;;;23.33;61.31;98801.50;4483147;31;20095;-70
2022/08/02 05:55:06;;;;;;;10.68;4.22;;;;;;;23.51;62.56;98798.88;4483718;31;20088;-70
2022/08/02 05:57:58;;;;;;;11.23;3.92;;;;;;;23.71;62.99;98809.38;4482421;32;20768;-70
2022/08/02 06:00:29;;;;;;;9.45;5.60;;;;;;;23.89;61.95;98799.75;4482365;32;20093;-70
2022/08/02 06:03:15;;;;;;;12.25;4.62;;;;;;;24.10;60.69;98795.78;4474610;32;20085;-71
2022/08/02 06:05:50;;;;;;;8.45;4.10;;;;;;;24.24;61.25;98797.28;4477733;31;20096;-70
2022/08/02 06:08:20;;;;;;;10.50;3.97;;;;;;;24.09;60.03;98808.38;4480311;32;20092;-70
2022/08/02 06:10:48;;;;;;;13.00;4.35;;;;;;;24.26;60.94;98797.84;4485482;31;20093;-70
2022/08/02 06:13:18;;;;;;;7.00;4.22;;;;;;;24.36;59.65;98801.84;4484791;32;20084;-71
2022/08/02 06:15:50;;;;;;;5.25;3.67;;;;;;;24.38;58.73;98802.47;4485986;31;20085;-71
2022/08/02 06:18:20;;;;;;;8.75;3.95;;;;;;;24.38;58.74;98802.47;4483781;31;20100;-70
2022/08/02 06:20:58;;;;;;;7.22;4.00;;;;;;;24.55;58.30;98811.47;4481024;32;20126;-70
2022/08/02 06:23:46;;;;;;;10.32;3.75;;;;;;;24.72;58.35;98808.19;4471886;32;20163;-70
2022/08/02 06:26:26;;;;;;;9.57;4.00;;;;;;;24.78;56.21;98808.12;4477362;32;20097;-71
2022/08/02 06:28:56;;;;;;;8.20;3.87;;;;;;;24.83;56.76;98811.94;4485023;31;20520;-70
2022/08/02 06:31:23;;;;;;;10.80;4.10;;;;;;;25.02;57.83;98807.34;4485655;32;20100;-70
2022/08/02 06:33:51;;;;;;;4.32;3.37;;;;;;;25.08;57.55;98815.28;4485853;31;20421;-71
2022/08/02 06:36:37;;;;;;;8.80;3.40;;;;;;;24.92;55.84;98806.06;4485213;31;20543;-70
2022/08/02 06:39:15;;;;;;;5.00;3.30;;;;;;;24.90;55.08;98816.16;4468844;32;20545;-70
2022/08/02 06:41:43;;;;;;;8.30;3.80;;;;;;;25.02;54.83;98826.91;4484039;32;20126;-70
2022/08/02 06:44:12;;;;;;;6.40;3.40;;;;;;;24.93;56.55;98815.69;4482924;32;20116;-70
2022/08/02 06:46:59;;;;;;;7.90;3.55;;;;;;;24.94;57.10;98820.03;4483874;31;20081;-70
2022/08/02 06:49:40;;;;;;;4.72;3.30;;;;;;;24.79;56.84;98822.31;4468204;32;20084;-70
2022/08/02 06:52:24;;;;;;;6.32;4.78;;;;;;;24.78;57.05;98823.34;4475720;32;20395;-70
2022/08/02 06:55:01;;;;;;;5.18;3.58;;;;;;;24.71;58.26;98828.81;4484603;32;20554;-70
2022/08/02 06:57:28;;;;;;;5.10;3.63;;;;;;;24.91;57.82;98823.16;4468849;32;20107;-70
2022/08/02 06:59:57;;;;;;;5.65;3.67;;;;;;;24.98;56.92;98818.53;4468983;32;20142;-71
2022/08/02 07:02:24;;;;;;;4.25;3.53;;;;;;;24.79;58.37;98825.00;4475847;32;20123;-70
2022/08/02 07:04:51;;;;;;;5.87;4.07;;;;;;;25.06;57.18;98819.25;4484557;31;20108;-71
2022/08/02 07:07:19;;;;;;;5.35;3.40;;;;;;;25.33;58.08;98815.09;4481258;32;20097;-72
2022/08/02 07:09:46;;;;;;;3.47;3.17;;;;;;;25.54;56.05;98820.13;4485562;31;20358;-71
2022/08/02 07:12:32;;;;;;;5.22;3.28;;;;;;;25.63;54.74;98822.22;4485532;31;20156;-71
2022/08/02 07:15:01;;;;;;;4.70;4.18;;;;;;;25.66;54.55;98813.72;4484744;31;20471;-71
2022/08/02 07:17:29;;;;;;;5.03;3.72;;;;;;;25.92;54.73;98805.37;4484888;31;20147;-71
2022/08/02 07:19:57;;;;;;;5.07;3.05;;;;;;;26.17;53.42;98805.13;4484558;31;20107;-71
2022/08/02 07:22:25;;;;;;;4.28;3.30;;;;;;;26.14;52.21;98802.91;4484224;32;20104;-71
2022/08/02 07:24:55;;;;;;;3.20;2.58;;;;;;;26.07;55.29;98802.22;4477334;31;20191;-71
2022/08/02 07:27:23;;;;;;;6.28;3.45;;;;;;;25.88;51.01;98806.91;4481819;32;20157;-71
2022/08/02 07:29:51;;;;;;;7.57;3.12;;;;;;;25.82;51.64;98806.00;4484242;31;20937;-71
2022/08/02 07:32:20;;;;;;;6.60;2.90;;;;;;;26.02;50.98;98814.47;4484462;32;20149;-71
2022/08/02 07:34:48;;;;;;;3.65;2.72;;;;;;;25.80;51.33;98803.53;4485101;31;20092;-71
2022/08/02 07:37:31;;;;;;;5.28;3.58;;;;;;;25.93;50.57;98801.66;4475932;32;20143;-71
2022/08/02 07:40:18;;;;;;;3.90;2.80;;;;;;;26.19;50.87;98794.94;4481406;32;20131;-71
2022/08/02 07:42:50;;;;;;;4.43;2.72;;;;;;;26.37;50.39;98792.09;4485350;31;20131;-71
2022/08/02 07:45:19;;;;;;;6.22;2.85;;;;;;;26.53;48.72;98800.44;4484454;31;20101;-71
2022/08/02 07:47:46;;;;;;;6.03;3.00;;;;;;;26.53;49.61;98797.75;4485084;31;20084;-71
2022/08/02 07:50:15;;;;;;;4.72;2.85;;;;;;;26.69;49.77;98799.69;4485179;32;20425;-71
2022/08/02 07:52:43;;;;;;;6.65;3.58;;;;;;;26.81;48.72;98802.28;4484914;31;20088;-71
2022/08/02 07:55:11;;;;;;;3.28;2.97;;;;;;;26.60;49.01;98803.75;4484173;31;20092;-71
2022/08/02 07:57:39;;;;;;;2.97;2.72;;;;;;;26.63;48.37;98803.31;4484339;31;20108;-71
2022/08/02 08:00:14;;;;;;;5.03;3.35;;;;;;;26.63;48.51;98803.31;4484248;31;20080;-71
2022/08/02 08:02:42;;;;;;;5.28;3.00;;;;;;;26.37;49.86;98805.53;4485031;31;20084;-71
2022/08/02 08:05:10;;;;;;;4.57;2.78;;;;;;;26.53;48.87;98801.25;4484903;31;20093;-71
2022/08/02 08:07:38;;;;;;;3.12;2.65;;;;;;;26.56;48.18;98805.31;4484361;31;20112;-71
2022/08/02 08:10:06;;;;;;;3.45;2.95;;;;;;;26.69;47.87;98801.53;4485026;32;20100;-71
2022/08/02 08:12:33;;;;;;;5.35;2.83;;;;;;;26.89;48.01;98801.09;4484782;31;20100;-72
2022/08/02 08:15:00;;;;;;;3.35;2.90;;;;;;;26.95;48.66;98802.81;4484810;31;20379;-71
2022/08/02 08:17:28;;;;;;;4.85;2.85;;;;;;;26.80;48.25;98807.91;4484821;31;20108;-71
2022/08/02 08:19:55;;;;;;;3.08;2.65;;;;;;;27.04;48.44;98814.78;4485001;32;20522;-71
2022/08/02 08:22:22;;;;;;;3.50;2.90;;;;;;;27.09;47.41;98816.75;4482628;32;20119;-71
2022/08/02 08:24:49;;;;;;;5.12;2.50;;;;;;;27.10;47.32;98810.28;4484423;32;20446;-71
2022/08/02 08:27:18;;;;;;;4.28;3.03;;;;;;;27.25;47.32;98810.56;4483525;31;20119;-71
2022/08/02 08:29:45;;;;;;;3.10;2.80;;;;;;;27.06;47.89;98807.28;4483478;31;20100;-71
2022/08/02 08:32:13;;;;;;;6.78;3.33;;;;;;;27.21;47.43;98808.59;4483296;32;20096;-71
2022/08/02 08:34:45;;;;;;;3.00;2.62;;;;;;;27.46;47.17;98808.19;4483778;31;20371;-71
2022/08/02 08:37:13;;;;;;;4.82;3.08;;;;;;;27.42;46.33;98810.56;4484009;31;20551;-71
2022/08/02 08:39:48;;;;;;;5.00;2.62;;;;;;;27.54;46.41;98812.34;4484725;31;20476;-71
2022/08/02 08:42:29;;;;;;;9.05;2.42;;;;;;;27.44;45.91;98811.13;4481866;32;20096;-71
2022/08/02 08:44:58;;;;;;;2.58;2.33;;;;;;;27.43;45.43;98809.53;4484894;31;20076;-71
2022/08/02 08:47:35;;;;;;;2.53;2.20;;;;;;;27.32;45.69;98812.25;4484505;31;20134;-71
2022/08/02 08:50:07;;;;;;;3.28;2.83;;;;;;;27.11;45.92;98821.88;4483996;31;20097;-71
2022/08/02 08:52:56;;;;;;;3.10;2.80;;;;;;;26.67;46.84;98817.91;4483593;32;20144;-71
2022/08/02 08:55:26;;;;;;;4.25;2.65;;;;;;;26.51;47.53;98821.34;4476104;32;20111;-71
2022/08/02 08:57:54;;;;;;;6.18;2.70;;;;;;;26.83;46.25;98821.69;4477526;32;20100;-72
2022/08/02 09:00:21;;;;;;;27.55;3.95;;;;;;;27.35;45.16;98818.00;4481843;32;20398;-72
2022/08/02 09:02:48;;;;;;;3.12;2.83;;;;;;;27.97;45.48;98824.28;4482713;31;20091;-72
2022/08/02 09:05:17;;;;;;;6.25;2.58;;;;;;;28.37;43.05;98830.38;4482070;32;20100;-72
2022/08/02 09:07:48;;;;;;;5.25;2.58;;;;;;;28.33;43.50;98824.72;4482247;31;20092;-72
2022/08/02 09:10:36;;;;;;;6.18;2.60;;;;;;;28.25;42.40;98828.66;4482245;31;20088;-72
2022/08/02 09:13:21;;;;;;;5.43;2.65;;;;;;;28.14;42.31;98827.69;4482834;31;20530;-71
2022/08/02 09:16:08;;;;;;;39.40;3.30;;;;;;;28.59;43.31;98831.22;4480584;32;20466;-71
2022/08/02 09:18:44;;;;;;;2.60;2.10;;;;;;;28.54;40.38;98828.44;4481603;32;20097;-71
2022/08/02 09:21:13;;;;;;;;;;;;;;;28.43;40.51;98835.56;4481334;31;20115;-72
2022/08/02 09:23:46;;;;;;;2.30;2.10;;;;;;;28.68;40.30;98831.56;4481982;31;19971;-71
2022/08/02 09:26:16;;;;;;;2.60;1.80;;;;;;;29.31;39.96;98826.47;4483244;31;20453;-72
2022/08/02 09:28:47;;;;;;;6.00;1.98;;;;;;;29.51;38.88;98825.00;4481711;31;20179;-71
2022/08/02 09:31:17;;;;;;;4.18;2.00;;;;;;;29.94;37.62;98830.41;4480924;31;20092;-71
2022/08/02 09:33:53;;;;;;;2.22;2.03;;;;;;;29.78;37.44;98818.66;4482124;31;20614;-71
2022/08/02 09:36:21;;;;;;;2.40;2.12;;;;;;;29.63;38.84;98828.31;4484112;31;20525;-71
2022/08/02 09:39:02;;;;;;;4.62;2.30;;;;;;;29.04;39.69;98831.91;4483248;31;20115;-71
2022/08/02 09:41:32;;;;;;;5.07;2.33;;;;;;;28.64;40.10;98833.94;4485424;31;20100;-72
2022/08/02 09:44:04;;;;;;;2.20;2.00;;;;;;;28.54;40.79;98833.00;4485100;31;20115;-72
2022/08/02 09:46:38;;;;;;;2.30;2.10;;;;;;;28.16;41.20;98830.13;4484986;32;20126;-71
2022/08/02 09:49:06;;;;;;;2.80;2.03;;;;;;;28.17;41.08;98828.28;4484859;32;20160;-71
2022/08/02 09:51:48;;;;;;;4.68;2.05;;;;;;;27.99;41.50;98827.50;4485175;31;20096;-72
2022/08/02 09:54:22;;;;;;;5.97;2.12;;;;;;;28.11;41.26;98824.69;4485961;31;20089;-71
2022/08/02 09:56:57;;;;;;;4.00;2.10;;;;;;;28.09;42.20;98822.25;4486090;31;20072;-71
2022/08/02 09:59:26;;;;;;;2.83;2.05;;;;;;;27.71;42.35;98818.50;4484859;31;20085;-71
2022/08/02 10:01:54;;;;;;;2.72;2.15;;;;;;;27.55;42.87;98814.78;4485263;31;20085;-71
2022/08/02 10:04:30;;;;;;;3.20;2.20;;;;;;;27.56;43.07;98818.31;4483425;31;20115;-71
2022/08/02 10:07:02;;;;;;;2.87;2.17;;;;;;;27.55;43.08;98819.34;4484104;31;20096;-71
2022/08/02 10:09:31;;;;;;;8.93;2.30;;;;;;;27.75;42.15;98811.59;4476601;32;20105;-71
2022/08/02 10:12:00;;;;;;;3.30;2.28;;;;;;;28.63;40.70;98807.25;4486273;31;20148;-72
2022/08/02 10:14:27;;;;;;;5.12;2.10;;;;;;;29.29;39.31;98811.63;4485748;31;20167;-71
2022/08/02 10:16:56;;;;;;;3.85;1.98;;;;;;;29.29;39.40;98807.03;4482881;31;20085;-72
2022/08/02 10:19:26;;;;;;;4.62;2.10;;;;;;;29.09;39.57;98804.16;4484939;31;20485;-72
2022/08/02 10:22:14;;;;;;;4.03;2.20;;;;;;;28.39;40.84;98802.13;4483910;31;20100;-72
2022/08/02 10:24:46;;;;;;;6.15;2.20;;;;;;;27.95;41.68;98802.16;4482299;32;20158;-72
2022/08/02 10:27:19;;;;;;;2.97;1.90;;;;;;;27.93;41.85;98801.56;4483478;31;20179;-73
2022/08/02 10:29:48;;;;;;;3.62;2.05;;;;;;;28.36;41.14;98804.50;4481884;31;20850;-72
2022/08/02 10:32:33;;;;;;;2.33;1.80;;;;;;;28.86;40.16;98795.34;4482266;31;20149;-72
2022/08/02 10:35:13;;;;;;;3.78;1.87;;;;;;;29.10;39.47;98785.03;4483512;31;20110;-73
2022/08/02 10:37:56;;;;;;;2.55;2.35;;;;;;;29.29;39.38;98790.03;4483946;32;20183;-71
2022/08/02 10:40:25;;;;;;;2.60;2.37;;;;;;;28.80;39.83;98793.66;4482899;32;20142;-72
2022/08/02 10:43:00;;;;;;;2.28;2.08;;;;;;;28.54;40.45;98785.31;4481265;32;20120;-72
2022/08/02 10:45:27;;;;;;;3.00;2.08;;;;;;;28.19;41.56;98793.81;4484276;31;20119;-71
2022/08/02 10:47:55;;;;;;;5.90;2.08;;;;;;;28.74;40.64;98794.69;4483564;32;20175;-71
2022/08/02 10:50:48;;;;;;;2.05;1.87;;;;;;;29.62;39.02;98793.47;4482555;31;20127;-72
2022/08/02 10:53:23;;;;;;;5.00;2.00;;;;;;;30.18;37.38;98782.94;4481875;31;20417;-71
2022/08/02 10:55:52;;;;;;;2.17;1.98;;;;;;;30.17;37.18;98783.19;4484422;31;20530;-72
2022/08/02 10:58:21;;;;;;;2.15;1.50;;;;;;;30.57;35.97;98781.72;4484085;32;20080;-72
2022/08/02 11:00:56;;;;;;;2.10;1.87;;;;;;;30.66;36.57;98779.25;4484373;31;20501;-72
2022/08/02 11:03:26;;;;;;;2.28;1.83;;;;;;;30.37;36.73;98790.53;4482447;32;20091;-72
2022/08/02 11:06:02;;;;;;;2.20;2.03;;;;;;;29.69;37.73;98794.88;4480771;32;20096;-72
2022/08/02 11:08:30;;;;;;;2.25;1.87;;;;;;;29.27;38.16;98786.78;4482017;32;20088;-73
2022/08/02 11:11:19;;;;;;;2.80;2.10;;;;;;;29.37;38.70;98789.53;4483873;31;20092;-72
2022/08/02 11:14:12;;;;;;;2.10;1.90;;;;;;;29.11;39.34;98783.13;4482908;32;20122;-72
2022/08/02 11:16:55;;;;;;;2.75;1.65;;;;;;;29.71;38.20;98791.91;4483718;31;20559;-72
2022/08/02 11:19:23;;;;;;;6.40;3.67;;;;;;;29.57;38.02;98786.16;4482983;32;20108;-72
2022/08/02 11:22:10;;;;;;;2.10;1.62;;;;;;;29.69;37.67;98783.22;4482430;31;20105;-72
2022/08/02 11:24:39;;;;;;;2.00;1.85;;;;;;;30.22;36.96;98784.03;4482739;31;20108;-72
2022/08/02 11:27:07;;;;;;;2.33;1.65;;;;;;;30.26;36.49;98763.47;4475312;32;20537;-73
2022/08/02 11:29:38;;;;;;;2.58;1.70;;;;;;;30.73;36.19;98775.22;4483644;31;20084;-72
2022/08/02 11:32:07;;;;;;;5.40;1.75;;;;;;;30.45;35.88;98768.44;4483336;31;20500;-73
2022/08/02 11:34:35;;;;;;;3.30;1.70;;;;;;;30.29;36.59;98777.56;4482645;32;20100;-72
2022/08/02 11:37:04;;;;;;;13.65;1.60;;;;;;;30.22;36.66;98769.69;4485284;31;20534;-71
2022/08/02 11:39:32;;;;;;;1.90;1.77;;;;;;;29.58;37.33;98763.47;4485196;32;20141;-72
2022/08/02 11:41:59;;;;;;;2.78;1.65;;;;;;;29.11;38.32;98781.22;4484684;31;20432;-72
2022/08/02 11:44:39;;;;;;;2.70;1.77;;;;;;;29.10;38.13;98776.94;4482657;32;20115;-72
2022/08/02 11:47:07;;;;;;;1.98;1.50;;;;;;;29.78;37.36;98770.88;4485514;31;20218;-72
2022/08/02 11:49:35;;;;;;;3.42;1.60;;;;;;;29.75;36.25;98763.28;4484728;31;20093;-72
2022/08/02 11:52:05;;;;;;;4.47;1.70;;;;;;;30.08;36.98;98766.69;4484631;31;20647;-72
2022/08/02 11:54:33;;;;;;;1.67;1.50;;;;;;;30.64;35.67;98765.22;4484024;32;20096;-73
2022/08/02 11:57:14;;;;;;;1.95;1.77;;;;;;;30.71;35.52;98771.16;4485238;31;20096;-73